Time;durP1;ratioP1;P1;durP2;ratioP2;P2;SDS_P1;SDS_P2;PMS_P1;PMS_P2;Temp;Humidity;BMP_temperature;BMP_pressure;BME280_temperature;BME280_humidity;BME280_pressure;Samples;Min_cycle;Max_cycle;Signal;HPM_P1;HPM_P2
2022/01/05 00:00:43;;;;;;;;;;;;;;;10.46;70.25;98319.13;4513001;31;34405;-57
2022/01/05 00:03:11;;;;;;;10.70;5.32;;;;;;;10.60;69.85;98316.97;4512310;31;32195;-57
2022/01/05 00:05:39;;;;;;;11.30;5.32;;;;;;;10.62;69.59;98311.53;4498566;31;33608;-58
2022/01/05 00:08:06;;;;;;;;;;;;;;;10.54;69.71;98314.84;4512136;31;34465;-57
2022/01/05 00:10:34;;;;;;;10.30;4.97;;;;;;;10.69;69.06;98315.34;4512566;31;35227;-58
2022/01/05 00:13:01;;;;;;;9.02;4.15;;;;;;;10.60;69.43;98316.97;4511934;31;33257;-58
2022/01/05 00:15:28;;;;;;;10.73;4.43;;;;;;;10.50;69.81;98318.72;4512224;31;33541;-58
2022/01/05 00:17:57;;;;;;;;;;;;;;;10.57;69.59;98317.22;4512621;31;34184;-58
2022/01/05 00:20:25;;;;;;;9.65;4.50;;;;;;;10.71;69.37;98312.56;4512032;31;34833;-57
2022/01/05 00:22:52;;;;;;;9.93;4.37;;;;;;;10.62;69.53;98308.91;4512536;31;33819;-57
2022/01/05 00:25:22;;;;;;;9.57;4.32;;;;;;;10.63;69.54;98303.50;4511464;31;34753;-58
2022/01/05 00:27:50;;;;;;;8.75;4.68;;;;;;;10.74;68.94;98297.31;4498028;31;35065;-57
2022/01/05 00:30:17;;;;;;;7.22;3.92;;;;;;;10.74;68.94;98294.66;4511852;31;34094;-57
2022/01/05 00:32:45;;;;;;;7.05;3.92;;;;;;;10.63;69.41;98289.47;4511987;31;34236;-58
2022/01/05 00:35:12;;;;;;;8.88;4.32;;;;;;;10.58;70.09;98286.37;4512322;31;33926;-57
2022/01/05 00:37:40;;;;;;;8.52;3.67;;;;;;;10.69;69.52;98290.75;4511723;31;33979;-57
2022/01/05 00:40:07;;;;;;;;;;;;;;;10.56;69.73;98289.16;4454024;31;33829;-58
2022/01/05 00:42:36;;;;;;;9.70;3.80;;;;;;;10.67;69.63;98290.88;4430456;32;34205;-57
2022/01/05 00:45:04;;;;;;;8.18;4.20;;;;;;;10.68;69.44;98278.50;4430869;32;33688;-58
2022/01/05 00:47:31;;;;;;;10.43;4.45;;;;;;;10.76;69.00;98295.38;4430207;32;34970;-58
2022/01/05 00:49:59;;;;;;;10.05;4.37;;;;;;;10.57;69.59;98288.19;4483698;31;34870;-58
2022/01/05 00:52:26;;;;;;;8.55;4.03;;;;;;;10.68;69.20;98295.19;4430780;32;33487;-57
2022/01/05 00:54:54;;;;;;;8.10;4.00;;;;;;;10.52;69.57;98292.19;4430445;32;34901;-57
2022/01/05 00:57:22;;;;;;;8.20;3.78;;;;;;;10.54;69.66;98293.72;4431130;32;35074;-57
2022/01/05 00:59:49;;;;;;;8.63;3.78;;;;;;;10.60;69.38;98281.81;4430152;32;34448;-57
2022/01/05 01:02:17;;;;;;;10.68;4.20;;;;;;;10.74;68.72;98292.03;4431096;32;34923;-58
2022/01/05 01:04:45;;;;;;;8.57;3.62;;;;;;;10.65;69.09;98300.75;4430561;32;33668;-57
2022/01/05 01:07:13;;;;;;;9.82;4.07;;;;;;;10.41;69.92;98306.28;4430747;32;33972;-57
2022/01/05 01:09:40;;;;;;;;;;;;;;;10.54;69.73;98308.72;4430973;32;33840;-57
2022/01/05 01:12:09;;;;;;;7.80;3.85;;;;;;;10.67;69.39;98309.34;4430679;32;33409;-57
2022/01/05 01:14:36;;;;;;;9.25;3.70;;;;;;;10.73;68.99;98300.91;4430706;32;33827;-58
2022/01/05 01:17:04;;;;;;;7.03;3.58;;;;;;;10.61;69.31;98294.06;4429926;32;35192;-57
2022/01/05 01:19:31;;;;;;;6.82;3.70;;;;;;;10.63;69.51;98289.47;4431006;32;34080;-57
2022/01/05 01:21:59;;;;;;;8.55;4.00;;;;;;;10.70;69.19;98292.41;4430123;32;33238;-57
2022/01/05 01:24:27;;;;;;;8.82;4.18;;;;;;;10.61;69.41;98283.50;4430425;32;33911;-57
2022/01/05 01:26:54;;;;;;;8.20;3.85;;;;;;;10.51;69.97;98280.81;4430432;32;34944;-58
2022/01/05 01:29:22;;;;;;;7.47;3.80;;;;;;;10.75;69.15;98284.94;4430049;32;34316;-58
2022/01/05 01:31:50;;;;;;;11.07;4.30;;;;;;;10.83;68.82;98275.38;4430788;32;33177;-57
2022/01/05 01:34:17;;;;;;;8.35;4.30;;;;;;;10.82;68.91;98276.34;4429683;32;34173;-57
2022/01/05 01:36:45;;;;;;;8.20;4.05;;;;;;;10.73;69.11;98273.69;4430585;32;35106;-57
2022/01/05 01:39:12;;;;;;;7.62;3.92;;;;;;;10.54;69.62;98275.25;4429878;32;33312;-58
2022/01/05 01:41:40;;;;;;;9.32;4.30;;;;;;;10.70;69.11;98277.44;4430333;32;34439;-57
2022/01/05 01:44:07;;;;;;;9.02;4.43;;;;;;;10.67;69.20;98279.50;4483092;31;33129;-57
2022/01/05 01:46:35;;;;;;;7.45;3.58;;;;;;;10.54;69.74;98279.69;4429874;32;36019;-58
2022/01/05 01:49:03;;;;;;;7.87;3.70;;;;;;;10.72;69.12;98277.28;4430305;32;34023;-57
2022/01/05 01:51:30;;;;;;;7.53;4.00;;;;;;;10.60;69.43;98269.47;4429487;32;34312;-57
2022/01/05 01:53:58;;;;;;;6.70;3.53;;;;;;;10.80;68.75;98272.19;4430508;32;34063;-58
2022/01/05 01:56:26;;;;;;;7.43;3.60;;;;;;;10.75;69.03;98267.28;4429735;32;34103;-57
2022/01/05 01:58:54;;;;;;;7.50;3.72;;;;;;;10.76;68.95;98258.41;4431661;32;33889;-58
2022/01/05 02:01:21;;;;;;;8.48;4.00;;;;;;;10.91;68.54;98263.31;4432585;32;34054;-57
2022/01/05 02:03:49;;;;;;;;;;;;;;;10.94;68.40;98270.97;4432582;32;33519;-58
2022/01/05 02:06:16;;;;;;;8.60;3.90;;;;;;;10.87;68.58;98262.75;4432727;32;36363;-57
2022/01/05 02:08:44;;;;;;;6.70;3.70;;;;;;;11.04;67.90;98258.63;4431765;32;34789;-57
2022/01/05 02:11:12;;;;;;;;;;;;;;;11.00;67.79;98267.78;4485438;31;34608;-57
2022/01/05 02:13:40;;;;;;;7.15;3.75;;;;;;;10.83;68.52;98269.25;4432233;32;33693;-57
2022/01/05 02:16:07;;;;;;;7.18;3.33;;;;;;;10.80;68.70;98272.19;4432425;32;34311;-57
2022/01/05 02:21:11;;;;;;;7.37;3.40;;;;;;;11.00;67.84;98262.50;4432004;32;34267;-57
2022/01/05 02:23:39;;;;;;;7.10;3.60;;;;;;;10.80;68.49;98259.81;4432581;32;34676;-57
2022/01/05 02:26:07;;;;;;;8.02;3.60;;;;;;;10.80;68.57;98258.97;4431664;32;34325;-58
2022/01/05 02:28:35;;;;;;;8.18;3.95;;;;;;;10.75;68.69;98262.00;4432750;32;33672;-57
2022/01/05 02:31:04;;;;;;;;;;;;;;;10.77;68.89;98260.06;4432081;32;33244;-57
2022/01/05 02:33:32;;;;;;;8.88;3.72;;;;;;;10.84;68.56;98250.66;4432160;32;34172;-58
2022/01/05 02:35:59;;;;;;;7.43;3.67;;;;;;;10.79;68.66;98255.47;4432321;32;34722;-57
2022/01/05 02:38:27;;;;;;;7.80;3.67;;;;;;;10.97;68.00;98241.63;4431775;32;34953;-57
2022/01/05 02:40:55;;;;;;;7.32;3.30;;;;;;;10.87;68.41;98238.13;4432586;32;33944;-57
2022/01/05 02:43:23;;;;;;;8.32;3.95;;;;;;;10.81;68.57;98231.59;4431630;32;33935;-58
2022/01/05 02:45:51;;;;;;;7.18;3.47;;;;;;;10.92;68.30;98236.78;4432279;32;35254;-58
2022/01/05 02:48:18;;;;;;;;;;;;;;;10.87;68.39;98235.50;4432267;32;34258;-58
2022/01/05 02:50:45;;;;;;;7.45;4.07;;;;;;;11.00;67.88;98239.56;4432086;32;32823;-57
2022/01/05 02:53:13;;;;;;;8.13;3.47;;;;;;;10.97;67.84;98233.72;4432087;32;33527;-58
2022/01/05 02:55:40;;;;;;;7.25;3.72;;;;;;;10.91;68.03;98237.72;4431860;32;34228;-57
2022/01/05 02:58:08;;;;;;;10.10;4.10;;;;;;;11.07;67.59;98231.94;4432548;32;34964;-58
2022/01/05 03:00:35;;;;;;;6.80;3.60;;;;;;;11.00;67.57;98228.16;4544768;26;33196;-57
2022/01/05 03:03:03;;;;;;;7.28;3.70;;;;;;;11.07;67.14;98234.59;4481425;32;33732;-57
2022/01/05 03:05:30;;;;;;;7.60;3.40;;;;;;;10.93;67.43;98235.78;4482942;32;34135;-57
2022/01/05 03:07:58;;;;;;;7.55;3.87;;;;;;;10.96;67.16;98232.87;4481832;32;33683;-57
2022/01/05 03:10:26;;;;;;;5.97;3.20;;;;;;;11.02;67.05;98231.50;4482630;32;33613;-57
2022/01/05 03:12:53;;;;;;;9.40;4.12;;;;;;;10.87;67.59;98235.50;4467298;32;32555;-57
2022/01/05 03:15:21;;;;;;;8.38;3.58;;;;;;;10.89;67.46;98231.75;4482805;32;34627;-57
2022/01/05 03:17:48;;;;;;;8.18;3.78;;;;;;;10.93;67.10;98229.69;4482384;32;34392;-58
2022/01/05 03:20:20;;;;;;;6.55;3.78;;;;;;;11.23;66.27;98226.97;4481923;32;34551;-57
2022/01/05 03:22:49;;;;;;;33.08;13.48;;;;;;;10.96;67.03;98235.53;4482758;32;33816;-57
2022/01/05 03:25:16;;;;;;;16.48;7.68;;;;;;;10.76;67.73;98236.44;4481405;32;35102;-57
2022/01/05 03:27:48;;;;;;;7.82;3.85;;;;;;;10.88;67.52;98245.09;4482667;32;33812;-57
2022/01/05 03:30:18;;;;;;;11.57;4.72;;;;;;;10.83;67.54;98238.41;4481581;32;34403;-57
2022/01/05 03:35:35;;;;;;;13.70;7.18;;;;;;;10.83;67.43;98234.94;4483014;32;34209;-57
2022/01/05 03:38:03;;;;;;;9.93;5.30;;;;;;;10.91;67.06;98239.53;4481320;32;34271;-57
2022/01/05 03:40:32;;;;;;;10.57;5.57;;;;;;;10.97;66.74;98231.06;4482634;32;33437;-57
2022/01/05 03:43:00;;;;;;;10.82;5.40;;;;;;;10.88;66.94;98224.81;4481391;32;33740;-57
2022/01/05 03:45:27;;;;;;;;;;;;;;;10.87;67.03;98227.56;4483256;32;35532;-57
2022/01/05 03:47:54;;;;;;;8.57;4.32;;;;;;;10.75;67.37;98225.03;4482100;32;35310;-57
2022/01/05 03:50:22;;;;;;;9.40;6.10;;;;;;;10.79;67.24;98233.53;4481729;32;34290;-57
2022/01/05 03:52:50;;;;;;;7.97;5.15;;;;;;;10.84;66.96;98226.06;4482509;32;34841;-57
2022/01/05 03:55:17;;;;;;;7.55;4.25;;;;;;;10.62;67.65;98224.44;4481239;32;34821;-57
2022/01/05 03:57:45;;;;;;;7.43;3.95;;;;;;;10.65;67.62;98208.34;4482568;32;34076;-57
2022/01/05 04:00:12;;;;;;;7.05;3.45;;;;;;;10.76;67.36;98218.81;4481149;32;33004;-58
2022/01/05 04:02:40;;;;;;;6.80;3.85;;;;;;;10.77;67.32;98215.19;4482622;32;34363;-57
2022/01/05 04:05:08;;;;;;;8.88;3.55;;;;;;;10.92;66.77;98209.53;4482050;32;34088;-57
2022/01/05 04:07:36;;;;;;;9.45;4.03;;;;;;;10.83;67.00;98200.59;4481733;32;33836;-57
2022/01/05 04:10:04;;;;;;;7.25;3.70;;;;;;;10.78;67.06;98206.31;4482491;32;33499;-57
2022/01/05 04:12:31;;;;;;;8.77;3.90;;;;;;;10.80;66.96;98212.28;4481211;32;35054;-57
2022/01/05 04:14:59;;;;;;;9.75;4.43;;;;;;;10.74;67.14;98209.31;4482358;32;34328;-57
2022/01/05 04:17:26;;;;;;;7.07;3.92;;;;;;;10.79;66.97;98200.03;4466882;32;33594;-57
2022/01/05 04:19:54;;;;;;;8.60;4.30;;;;;;;10.76;67.07;98202.09;4481906;32;33069;-57
2022/01/05 04:22:21;;;;;;;9.82;3.65;;;;;;;10.76;66.96;98202.97;4481310;32;34695;-57
2022/01/05 04:24:49;;;;;;;8.32;4.10;;;;;;;10.71;67.06;98194.59;4481718;32;34489;-57
2022/01/05 04:27:16;;;;;;;7.15;3.90;;;;;;;10.94;66.11;98191.75;4482237;32;34218;-57
2022/01/05 04:29:44;;;;;;;8.02;3.85;;;;;;;10.84;66.30;98197.84;4480950;32;33512;-57
2022/01/05 04:32:12;;;;;;;8.60;4.30;;;;;;;10.77;66.40;98203.78;4482222;32;33960;-57
2022/01/05 04:34:40;;;;;;;10.02;4.37;;;;;;;10.86;66.11;98200.34;4480778;32;35497;-57
2022/01/05 04:37:27;;;;;;;7.68;4.37;;;;;;;10.81;66.14;98203.38;4481796;32;34793;-57
2022/01/05 04:39:55;;;;;;;;;;;;;;;10.75;66.30;98211.84;4467990;32;33401;-57
2022/01/05 04:42:22;;;;;;;7.65;4.18;;;;;;;10.74;66.13;98196.97;4481081;32;34792;-57
2022/01/05 04:44:49;;;;;;;8.40;4.18;;;;;;;10.68;66.40;98202.78;4482045;32;35020;-57
2022/01/05 04:47:17;;;;;;;7.05;3.70;;;;;;;10.70;66.51;98200.00;4480819;32;33678;-57
2022/01/05 04:49:44;;;;;;;8.65;3.47;;;;;;;10.79;66.47;98199.22;4482273;32;33582;-57
2022/01/05 04:52:12;;;;;;;8.73;3.37;;;;;;;10.68;66.71;98189.56;4481196;32;33744;-57
2022/01/05 04:54:39;;;;;;;8.57;3.92;;;;;;;10.62;67.06;98190.12;4481660;32;34487;-57
2022/01/05 04:57:07;;;;;;;7.85;3.95;;;;;;;10.64;67.11;98185.53;4481785;32;34111;-57
2022/01/05 04:59:34;;;;;;;7.75;3.40;;;;;;;10.72;66.72;98188.38;4480831;32;34012;-57
2022/01/05 05:02:02;;;;;;;;;;;;;;;10.55;67.64;98186.37;4482026;32;33948;-57
2022/01/05 05:04:29;;;;;;;8.85;4.03;;;;;;;10.70;67.27;98185.03;4480561;32;35607;-57
2022/01/05 05:06:57;;;;;;;11.25;4.00;;;;;;;10.79;66.79;98178.91;4481649;32;35196;-57
2022/01/05 05:09:25;;;;;;;7.93;3.80;;;;;;;10.77;66.90;98182.66;4480564;32;33167;-57
2022/01/05 05:11:53;;;;;;;10.07;4.03;;;;;;;10.69;66.99;98183.34;4481446;32;33792;-57
2022/01/05 05:14:20;;;;;;;7.22;3.60;;;;;;;10.61;67.38;98193.75;4481146;32;34042;-57
2022/01/05 05:16:48;;;;;;;;;;;;;;;10.62;67.35;98188.34;4481017;32;34871;-57
2022/01/05 05:19:15;;;;;;;8.30;3.80;;;;;;;10.64;67.28;98193.47;4482008;32;32970;-57
2022/01/05 05:21:42;;;;;;;9.13;4.15;;;;;;;10.71;67.04;98193.78;4480131;32;33892;-57
2022/01/05 05:24:13;;;;;;;9.82;3.78;;;;;;;10.73;66.91;98190.00;4481526;32;34147;-57
2022/01/05 05:26:40;;;;;;;7.68;4.28;;;;;;;10.77;66.68;98191.41;4480247;32;34091;-57
2022/01/05 05:29:08;;;;;;;8.40;5.00;;;;;;;10.71;66.73;98185.84;4481237;32;34200;-57
2022/01/05 05:31:35;;;;;;;9.40;5.18;;;;;;;10.68;66.75;98186.94;4481126;32;34732;-57
2022/01/05 05:34:03;;;;;;;7.80;4.30;;;;;;;10.69;66.58;98193.91;4482758;32;34362;-57
2022/01/05 05:36:30;;;;;;;10.70;5.60;;;;;;;10.64;66.56;98202.25;4478877;32;34171;-57
2022/01/05 05:38:58;;;;;;;9.75;6.07;;;;;;;10.61;66.59;98196.38;4466560;32;33497;-57
2022/01/05 05:41:25;;;;;;;11.25;6.93;;;;;;;10.55;66.46;98205.66;4478607;32;33616;-56
2022/01/05 05:43:52;;;;;;;12.80;7.43;;;;;;;10.56;66.55;98209.13;4477462;32;34100;-56
2022/01/05 05:46:21;;;;;;;13.55;6.50;;;;;;;10.50;66.81;98207.84;4469315;32;34820;-56
2022/01/05 05:48:48;;;;;;;14.73;6.87;;;;;;;10.49;66.88;98219.41;4476024;32;33640;-57
2022/01/05 05:51:15;;;;;;;10.73;6.50;;;;;;;10.57;66.59;98221.38;4466731;32;33843;-56
2022/01/05 05:53:43;;;;;;;11.60;7.20;;;;;;;10.45;66.84;98225.91;4479389;32;34555;-56
2022/01/05 05:56:11;;;;;;;11.20;6.10;;;;;;;10.53;66.52;98231.38;4481759;32;34177;-56
2022/01/05 05:58:38;;;;;;;12.52;7.10;;;;;;;10.58;66.22;98221.22;4483472;32;34168;-56
2022/01/05 06:01:06;;;;;;;11.60;6.60;;;;;;;10.52;66.42;98218.28;4481897;32;34028;-57
2022/01/05 06:03:34;;;;;;;10.20;5.70;;;;;;;10.61;66.09;98220.13;4483060;32;34586;-56
2022/01/05 06:06:01;;;;;;;11.10;6.53;;;;;;;10.43;66.48;98220.75;4470459;32;34122;-56
2022/01/05 06:08:28;;;;;;;12.98;6.85;;;;;;;10.32;66.74;98222.66;4466771;32;33625;-56
2022/01/05 06:10:56;;;;;;;11.23;5.55;;;;;;;10.40;66.49;98225.47;4475215;32;33912;-57
2022/01/05 06:13:23;;;;;;;9.00;4.93;;;;;;;10.37;66.76;98231.84;4481227;32;35297;-56
2022/01/05 06:15:51;;;;;;;9.05;5.30;;;;;;;10.47;66.84;98226.63;4481731;32;33655;-57
2022/01/05 06:18:18;;;;;;;11.25;5.60;;;;;;;10.40;67.10;98225.47;4466272;32;33034;-56
2022/01/05 06:20:46;;;;;;;9.77;5.40;;;;;;;10.37;67.20;98229.22;4467640;32;34020;-56
2022/01/05 06:23:13;;;;;;;;;;;;;;;10.36;67.31;98224.87;4467033;32;34339;-57
2022/01/05 06:25:41;;;;;;;10.13;5.55;;;;;;;10.51;66.95;98225.37;4452675;32;34196;-56
2022/01/05 06:28:11;;;;;;;8.85;4.68;;;;;;;10.50;67.20;98228.16;4467905;32;33027;-56
2022/01/05 06:30:39;;;;;;;9.98;4.43;;;;;;;10.48;67.40;98227.44;4466115;32;34018;-56
2022/01/05 06:33:07;;;;;;;8.30;4.28;;;;;;;10.44;67.86;98227.69;4467393;32;34151;-57
2022/01/05 06:35:34;;;;;;;;;;;;;;;10.36;68.49;98230.16;4469203;32;35019;-56
2022/01/05 06:38:01;;;;;;;9.10;4.62;;;;;;;10.68;70.25;98228.34;4474156;32;34185;-57
2022/01/05 06:40:29;;;;;;;;;;;;;;;10.76;69.04;98229.38;4483219;32;33777;-56
2022/01/05 06:42:58;;;;;;;12.10;4.80;;;;;;;10.76;68.11;98229.38;4482306;32;34806;-56
2022/01/05 06:45:25;;;;;;;11.05;5.80;;;;;;;10.63;67.98;98236.69;4482677;32;34122;-57
2022/01/05 06:47:53;;;;;;;11.02;5.55;;;;;;;10.66;68.02;98232.94;4481859;32;34066;-57
2022/01/05 06:50:21;;;;;;;11.48;5.55;;;;;;;10.63;68.00;98224.31;4481527;32;33626;-57
2022/01/05 06:52:49;;;;;;;8.82;5.00;;;;;;;10.74;67.63;98223.38;4472829;32;34153;-56
2022/01/05 06:55:16;;;;;;;10.10;4.95;;;;;;;10.89;73.25;98225.63;4482858;32;34243;-57
2022/01/05 06:57:44;;;;;;;9.27;4.57;;;;;;;11.10;72.91;98238.75;4482241;32;33404;-56
2022/01/05 07:00:12;;;;;;;9.60;5.10;;;;;;;11.09;69.79;98239.72;4482132;32;33901;-56
2022/01/05 07:02:40;;;;;;;10.23;4.80;;;;;;;11.10;67.81;98233.47;4482935;32;34130;-56
2022/01/05 07:05:08;;;;;;;8.02;4.40;;;;;;;11.00;67.36;98238.75;4481506;32;33901;-56
2022/01/05 07:07:36;;;;;;;;;;;;;;;10.96;67.32;98230.25;4483324;32;32546;-56
2022/01/05 07:10:05;;;;;;;10.13;3.97;;;;;;;11.14;66.85;98230.41;4481561;32;33694;-56
2022/01/05 07:12:34;;;;;;;8.23;4.12;;;;;;;11.13;66.53;98225.28;4482914;32;34596;-57
2022/01/05 07:15:03;;;;;;;7.55;4.07;;;;;;;11.15;66.57;98231.28;4482371;32;33968;-56
2022/01/05 07:17:31;;;;;;;7.32;4.37;;;;;;;11.08;66.97;98238.88;4481853;32;33531;-57
2022/01/05 07:19:59;;;;;;;10.80;5.30;;;;;;;11.14;66.81;98240.97;4483037;32;33545;-56
2022/01/05 07:22:26;;;;;;;;;;;;;;;11.03;67.43;98243.72;4481905;32;35168;-57
2022/01/05 07:24:56;;;;;;;9.57;5.47;;;;;;;11.21;66.92;98241.28;4472449;32;34450;-56
2022/01/05 07:27:23;;;;;;;15.93;9.40;;;;;;;10.99;67.57;98244.97;4481359;32;33725;-57
2022/01/05 07:29:51;;;;;;;;;;;;;;;11.16;67.00;98240.84;4483098;32;33928;-57
2022/01/05 07:32:18;;;;;;;11.52;6.72;;;;;;;11.30;66.59;98247.53;4482311;32;34434;-56
2022/01/05 07:34:46;;;;;;;10.77;5.70;;;;;;;11.15;67.17;98247.13;4481669;32;34929;-56
2022/01/05 07:37:13;;;;;;;13.45;4.68;;;;;;;10.97;67.91;98239.84;4482805;32;33244;-56
2022/01/05 07:39:41;;;;;;;11.85;4.90;;;;;;;11.17;67.25;98238.06;4481407;32;33408;-56
2022/01/05 07:42:10;;;;;;;8.25;4.62;;;;;;;11.17;67.46;98242.53;4475309;32;34536;-56
2022/01/05 07:44:38;;;;;;;11.00;6.30;;;;;;;11.11;67.69;98238.63;4467543;32;34224;-56
2022/01/05 07:47:07;;;;;;;10.57;6.15;;;;;;;11.11;67.92;98241.28;4466768;32;33580;-56
2022/01/05 07:49:34;;;;;;;11.18;6.28;;;;;;;11.21;67.58;98243.94;4466926;32;34854;-56
2022/01/05 07:52:02;;;;;;;8.90;5.15;;;;;;;11.37;67.21;98238.94;4465825;32;34488;-57
2022/01/05 07:54:29;;;;;;;;;;;;;;;11.45;67.03;98234.78;4467288;32;34880;-57
2022/01/05 07:56:57;;;;;;;10.02;4.00;;;;;;;11.43;67.16;98229.62;4465370;32;34113;-56
2022/01/05 07:59:24;;;;;;;8.02;3.97;;;;;;;11.39;67.13;98229.06;4478134;32;33658;-57
2022/01/05 08:01:52;;;;;;;10.48;4.07;;;;;;;11.40;67.16;98230.72;4480179;32;35148;-56
2022/01/05 08:04:22;;;;;;;9.38;4.05;;;;;;;11.56;66.71;98238.09;4480458;32;33420;-57
2022/01/05 08:06:49;;;;;;;9.27;3.97;;;;;;;11.66;66.45;98243.41;4482190;32;33472;-57
2022/01/05 08:09:16;;;;;;;11.05;4.28;;;;;;;11.63;66.72;98243.66;4481206;32;34103;-57
2022/01/05 08:11:44;;;;;;;7.72;4.55;;;;;;;11.69;66.67;98243.13;4482147;31;33858;-57
2022/01/05 08:14:12;;;;;;;7.65;4.22;;;;;;;11.74;66.55;98255.91;4472279;32;34499;-56
2022/01/05 08:16:39;;;;;;;10.57;4.68;;;;;;;11.68;66.60;98256.47;4467634;32;34420;-56
2022/01/05 08:19:07;;;;;;;;;;;;;;;11.67;66.97;98258.31;4466059;32;34698;-56
2022/01/05 08:21:34;;;;;;;9.10;4.20;;;;;;;11.94;66.00;98265.56;4475917;32;35373;-57
2022/01/05 08:24:02;;;;;;;12.20;4.87;;;;;;;11.98;65.88;98266.94;4481963;32;33774;-57
2022/01/05 08:26:29;;;;;;;12.88;5.50;;;;;;;11.81;66.44;98264.97;4469524;32;33787;-56
2022/01/05 08:28:57;;;;;;;11.90;4.70;;;;;;;11.73;67.01;98257.75;4473036;32;32930;-56
2022/01/05 08:31:24;;;;;;;10.73;4.80;;;;;;;11.96;66.46;98252.16;4462570;32;87450;-56
2022/01/05 08:33:56;;;;;;;;;;;;;;;11.98;66.28;98258.16;4466881;32;33790;-56
2022/01/05 08:36:23;;;;;;;15.30;6.35;;;;;;;12.13;65.56;98261.19;4465401;32;32664;-56
2022/01/05 08:38:51;;;;;;;9.18;4.68;;;;;;;12.18;65.66;98272.22;4466368;32;34183;-57
2022/01/05 08:41:19;;;;;;;9.75;4.10;;;;;;;12.23;65.55;98264.66;4466314;32;34145;-57
2022/01/05 08:43:46;;;;;;;9.85;4.75;;;;;;;12.27;65.73;98271.37;4465532;32;34801;-56
2022/01/05 08:46:14;;;;;;;9.02;3.80;;;;;;;12.33;65.29;98265.50;4466461;32;33863;-57
2022/01/05 08:48:43;;;;;;;8.68;3.95;;;;;;;12.31;65.27;98262.16;4465077;32;34225;-57
2022/01/05 08:51:10;;;;;;;8.75;4.10;;;;;;;12.43;64.96;98260.16;4466270;32;34479;-57
2022/01/05 08:53:40;;;;;;;10.38;4.03;;;;;;;12.55;64.45;98263.47;4465102;32;34131;-57
2022/01/05 08:56:08;;;;;;;10.82;4.68;;;;;;;12.52;64.70;98269.03;4466058;32;33411;-56
2022/01/05 08:58:36;;;;;;;8.32;4.12;;;;;;;12.59;64.22;98270.97;4465975;32;34037;-56
2022/01/05 09:01:03;;;;;;;7.80;3.97;;;;;;;12.47;65.32;98271.31;4465014;32;35292;-56
2022/01/05 09:03:31;;;;;;;10.57;4.22;;;;;;;12.57;64.60;98283.53;4466156;32;33650;-57
2022/01/05 09:06:00;;;;;;;7.55;3.70;;;;;;;12.36;65.51;98289.00;4464838;32;33676;-56
2022/01/05 09:08:27;;;;;;;10.52;4.20;;;;;;;12.68;64.66;98294.91;4467893;32;33487;-57
2022/01/05 09:10:55;;;;;;;;;;;;;;;12.64;64.68;98294.37;4467182;32;34055;-57
2022/01/05 09:13:22;;;;;;;10.32;4.20;;;;;;;12.70;64.60;98296.47;4468051;32;33260;-57
2022/01/05 09:15:50;;;;;;;9.63;4.43;;;;;;;12.99;63.42;98290.22;4475806;32;33067;-57
2022/01/05 09:18:18;;;;;;;9.32;4.28;;;;;;;12.71;64.38;98290.16;4470946;32;34510;-57
2022/01/05 09:20:46;;;;;;;8.45;4.22;;;;;;;12.72;64.53;98299.78;4470018;32;34215;-57
2022/01/05 09:23:13;;;;;;;12.10;5.57;;;;;;;12.69;64.61;98301.87;4482268;32;33662;-57
2022/01/05 09:25:41;;;;;;;11.05;5.12;;;;;;;12.60;64.60;98300.94;4471847;32;33010;-56
2022/01/05 09:28:09;;;;;;;7.47;4.10;;;;;;;12.86;64.11;98302.94;4466863;32;33197;-57
2022/01/05 09:30:38;;;;;;;9.77;3.55;;;;;;;12.76;63.88;98303.81;4479553;32;33752;-57
2022/01/05 09:33:07;;;;;;;6.78;3.37;;;;;;;13.05;62.83;98315.28;4476309;32;33775;-57
2022/01/05 09:35:39;;;;;;;8.60;3.42;;;;;;;12.75;63.10;98327.78;4477723;32;34120;-56
2022/01/05 09:38:10;;;;;;;;;;;;;;;12.65;63.00;98338.41;4483953;32;33679;-56
2022/01/05 09:43:24;;;;;;;6.85;3.30;;;;;;;12.32;63.70;98327.34;4483577;32;33634;-56
2022/01/05 09:46:01;;;;;;;8.18;3.65;;;;;;;12.59;62.63;98323.94;4483055;32;33164;-57
2022/01/05 09:48:47;;;;;;;10.23;5.20;;;;;;;12.27;63.53;98334.88;4468197;32;33884;-57
2022/01/05 09:51:18;;;;;;;8.77;5.03;;;;;;;12.35;63.33;98329.72;4468500;31;34616;-56
2022/01/05 09:53:47;;;;;;;7.35;3.42;;;;;;;12.31;63.22;98328.31;4470255;32;34807;-57
2022/01/05 09:56:33;;;;;;;6.22;3.25;;;;;;;12.02;64.29;98321.25;4483126;32;33535;-57
2022/01/05 09:59:02;;;;;;;6.03;3.10;;;;;;;12.02;64.44;98313.31;4459913;32;32399;-57
2022/01/05 10:01:34;;;;;;;7.32;3.05;;;;;;;12.11;64.06;98319.56;4472165;32;34526;-57
2022/01/05 10:04:03;;;;;;;8.07;3.58;;;;;;;12.31;63.18;98325.69;4481394;32;34240;-57
2022/01/05 10:06:38;;;;;;;6.95;3.22;;;;;;;11.94;64.77;98323.75;4465890;32;34066;-57
2022/01/05 10:09:06;;;;;;;7.25;3.78;;;;;;;11.82;65.24;98322.16;4466746;32;34676;-56
2022/01/05 10:11:34;;;;;;;7.90;3.30;;;;;;;11.95;64.97;98330.69;4480790;32;34129;-57
2022/01/05 10:14:02;;;;;;;8.50;3.70;;;;;;;12.01;64.68;98324.84;4481484;32;34780;-57
2022/01/05 10:16:30;;;;;;;6.75;3.75;;;;;;;11.98;64.69;98330.44;4468842;32;34094;-56
2022/01/05 10:18:58;;;;;;;6.62;3.72;;;;;;;11.90;65.20;98335.56;4464656;32;35126;-57
2022/01/05 10:21:33;;;;;;;6.53;3.75;;;;;;;11.99;64.69;98333.91;4457208;32;34844;-56
2022/01/05 10:24:00;;;;;;;6.90;3.70;;;;;;;12.08;64.60;98330.44;4473185;32;34771;-56
2022/01/05 10:26:29;;;;;;;7.85;3.78;;;;;;;11.76;65.53;98333.31;4472658;32;33440;-56
2022/01/05 10:29:01;;;;;;;7.78;4.10;;;;;;;11.72;65.81;98329.28;4481193;32;33534;-57
2022/01/05 10:31:32;;;;;;;7.93;3.97;;;;;;;11.81;65.64;98321.34;4477222;32;34053;-57
2022/01/05 10:34:14;;;;;;;10.35;4.00;;;;;;;11.85;65.45;98329.84;4466821;32;34599;-56
2022/01/05 10:36:44;;;;;;;8.02;3.87;;;;;;;11.70;65.57;98328.56;4464907;32;33050;-57
2022/01/05 10:39:12;;;;;;;7.72;3.58;;;;;;;11.68;65.38;98323.41;4465120;32;34734;-56
2022/01/05 10:41:44;;;;;;;7.28;3.50;;;;;;;11.71;65.47;98328.44;4464888;32;34920;-57
2022/01/05 10:44:19;;;;;;;7.15;3.12;;;;;;;11.74;65.17;98332.63;4464962;32;34301;-57
2022/01/05 10:46:52;;;;;;;8.13;3.08;;;;;;;11.49;66.03;98331.31;4468203;31;33214;-57
2022/01/05 10:49:39;;;;;;;6.55;3.12;;;;;;;11.66;65.31;98345.69;4464058;32;33991;-57
2022/01/05 10:52:30;;;;;;;7.25;2.67;;;;;;;11.66;65.27;98351.81;4447695;32;34327;-56
2022/01/05 10:55:14;;;;;;;6.57;3.40;;;;;;;11.64;65.52;98353.75;4464528;32;33975;-57
2022/01/05 10:58:01;;;;;;;5.53;2.75;;;;;;;11.50;67.01;98359.44;4469758;32;33481;-57
2022/01/05 11:00:35;;;;;;;5.78;2.60;;;;;;;11.31;67.67;98357.56;4480782;32;33604;-56
2022/01/05 11:03:21;;;;;;;5.15;2.42;;;;;;;11.45;66.87;98359.00;4471801;32;34703;-57
2022/01/05 11:06:17;;;;;;;3.70;1.55;;;;;;;11.40;67.17;98354.13;4480398;32;34031;-56
2022/01/05 11:08:55;;;;;;;3.55;1.40;;;;;;;11.02;67.81;98360.94;4480885;32;33482;-57
2022/01/05 11:11:41;;;;;;;3.80;1.20;;;;;;;11.05;68.37;98373.91;4480902;32;33676;-57
2022/01/05 11:14:11;;;;;;;3.80;1.08;;;;;;;10.97;68.71;98371.06;4481125;32;34518;-57
2022/01/05 11:16:46;;;;;;;3.50;1.30;;;;;;;10.87;68.74;98380.75;4478795;32;34662;-56
2022/01/05 11:19:14;;;;;;;5.43;1.30;;;;;;;10.76;68.70;98394.84;4480379;32;34503;-56
2022/01/05 11:22:00;;;;;;;3.60;1.20;;;;;;;10.70;69.64;98395.38;4471301;32;33953;-56
2022/01/05 11:24:30;;;;;;;2.92;1.00;;;;;;;10.92;68.02;98381.19;4466106;32;34165;-57
2022/01/05 11:26:57;;;;;;;4.72;1.08;;;;;;;10.71;68.00;98384.69;4468560;32;34928;-57
2022/01/05 11:29:25;;;;;;;2.83;0.95;;;;;;;10.67;68.38;98388.56;4470708;32;34231;-57
2022/01/05 11:31:56;;;;;;;2.20;1.00;;;;;;;10.63;68.21;98390.63;4465184;32;34004;-57
2022/01/05 11:34:27;;;;;;;4.47;1.05;;;;;;;10.69;67.75;98388.44;4476781;32;34527;-57
2022/01/05 11:36:57;;;;;;;1.65;0.80;;;;;;;10.57;67.86;98387.66;4477973;32;34280;-57
2022/01/05 11:39:25;;;;;;;2.22;0.85;;;;;;;10.61;67.62;98407.56;4463891;32;34370;-57
2022/01/05 11:41:53;;;;;;;2.12;0.82;;;;;;;10.74;67.05;98424.06;4464491;32;34231;-57
2022/01/05 11:44:21;;;;;;;3.58;0.95;;;;;;;10.72;66.96;98435.69;4469897;32;33978;-56
2022/01/05 11:46:48;;;;;;;2.30;0.90;;;;;;;10.29;68.33;98440.06;4470359;32;33629;-57
2022/01/05 11:49:26;;;;;;;2.60;0.90;;;;;;;10.50;66.86;98426.91;4465325;31;33180;-56
2022/01/05 11:51:59;;;;;;;2.90;1.00;;;;;;;10.28;68.40;98419.94;4491076;31;34549;-56